Tetbury, United Kingdom
Current Conditions -  °F | °C
As of 10:24 AM on Monday 20 Oct 2014 (Local Time) from EGVA Reporting Station
Drizzle Drizzle  
Wind Chill: 55°   Ceiling: 1400
Heat Index: 55°   Visibility: 6mi
Dew Point: 52°   Wind: 13mph
Humidity: 88%   Direction: 240°WSW
Pressure: 30.01"   Gusts: NA
Location:  51.64°N, 2.16°W
Report Text: EGVA 200924Z AUTO 24011KT 9999 -DZ BKN014 OVC170 13/11 A3001 RMK AO2 DZE0923 BKN V OVC
Loading
Personal Weather Stations






























Interactive Weather Map
Tropical Storm Tracking
New forecast layout! Learn more

10-Day Weather Forecast

Advertisements
Track Severe Weather on mobile